Craft, Texas
Current Conditions -  °F | °C
As of 1:15 AM on Friday 19 Dec 2014 (Local Time) from KJSO Reporting Station
Haze Haze  
Wind Chill: 45°   Ceiling: 200
Heat Index: 49°   Visibility: 1.2mi
Dew Point: 49°   Wind: 9mph
Humidity: 98%   Direction: 50°NE
Pressure: 30.12"   Gusts: NA
Location:  31.9649°N, 95.3036°W
Report Text: KJSO 190715Z AUTO 05008KT 1 1/4SM BR OVC002 09/09 A3012 RMK AO2 T00950092
Loading
Personal Weather Stations






























Interactive Weather Map New forecast layout! Learn more

10-Day Weather Forecast

Advertisements
Track Severe Weather on mobile